sensor_id;sensor_type;location;lat;lon;timestamp;temperature;humidity
46085;DHT22;31823;47.032;8.310;2023-07-02T00:02:07;16.60;99.90
46085;DHT22;31823;47.032;8.310;2023-07-02T00:04:33;16.60;99.90
46085;DHT22;31823;47.032;8.310;2023-07-02T00:06:58;16.60;99.90
46085;DHT22;31823;47.032;8.310;2023-07-02T00:09:24;16.70;99.90
46085;DHT22;31823;47.032;8.310;2023-07-02T00:11:49;16.60;99.90
46085;DHT22;31823;47.032;8.310;2023-07-02T00:14:15;16.50;99.90
46085;DHT22;31823;47.032;8.310;2023-07-02T00:16:44;16.50;99.90
46085;DHT22;31823;47.032;8.310;2023-07-02T00:19:11;16.50;99.90
46085;DHT22;31823;47.032;8.310;2023-07-02T00:21:36;16.50;99.90
46085;DHT22;31823;47.032;8.310;2023-07-02T00:24:02;16.50;99.90
46085;DHT22;31823;47.032;8.310;2023-07-02T00:26:28;16.50;99.90
46085;DHT22;31823;47.032;8.310;2023-07-02T00:28:55;16.50;99.90
46085;DHT22;31823;47.032;8.310;2023-07-02T00:31:21;16.60;99.90
46085;DHT22;31823;47.032;8.310;2023-07-02T00:33:48;16.60;99.90
46085;DHT22;31823;47.032;8.310;2023-07-02T00:36:13;16.40;99.90
46085;DHT22;31823;47.032;8.310;2023-07-02T00:38:46;16.40;99.90
46085;DHT22;31823;47.032;8.310;2023-07-02T00:41:13;16.40;99.90
46085;DHT22;31823;47.032;8.310;2023-07-02T00:43:38;16.40;99.90
46085;DHT22;31823;47.032;8.310;2023-07-02T00:46:18;16.30;99.90
46085;DHT22;31823;47.032;8.310;2023-07-02T00:48:51;16.20;99.90
46085;DHT22;31823;47.032;8.310;2023-07-02T00:51:24;16.20;99.90
46085;DHT22;31823;47.032;8.310;2023-07-02T00:53:52;16.70;99.90
46085;DHT22;31823;47.032;8.310;2023-07-02T00:56:18;16.50;99.90
46085;DHT22;31823;47.032;8.310;2023-07-02T00:58:46;16.40;99.90
46085;DHT22;31823;47.032;8.310;2023-07-02T01:01:17;16.30;99.90
46085;DHT22;31823;47.032;8.310;2023-07-02T01:04:10;16.30;99.90
46085;DHT22;31823;47.032;8.310;2023-07-02T01:06:38;16.30;99.90
46085;DHT22;31823;47.032;8.310;2023-07-02T01:09:06;16.10;99.90
46085;DHT22;31823;47.032;8.310;2023-07-02T01:11:43;16.20;99.90
46085;DHT22;31823;47.032;8.310;2023-07-02T01:16:53;16.10;99.90
46085;DHT22;31823;47.032;8.310;2023-07-02T01:19:31;16.00;99.90
46085;DHT22;31823;47.032;8.310;2023-07-02T01:21:59;16.10;99.90
46085;DHT22;31823;47.032;8.310;2023-07-02T01:24:26;16.00;99.90
46085;DHT22;31823;47.032;8.310;2023-07-02T01:26:52;16.00;99.90
46085;DHT22;31823;47.032;8.310;2023-07-02T01:29:19;16.00;99.90
46085;DHT22;31823;47.032;8.310;2023-07-02T01:31:46;16.00;99.90
46085;DHT22;31823;47.032;8.310;2023-07-02T01:34:12;16.10;99.90
46085;DHT22;31823;47.032;8.310;2023-07-02T01:36:38;16.10;99.90
46085;DHT22;31823;47.032;8.310;2023-07-02T01:39:04;16.10;99.90
46085;DHT22;31823;47.032;8.310;2023-07-02T01:41:31;16.00;99.90
46085;DHT22;31823;47.032;8.310;2023-07-02T01:43:57;16.00;99.90
46085;DHT22;31823;47.032;8.310;2023-07-02T01:46:23;16.00;99.90
46085;DHT22;31823;47.032;8.310;2023-07-02T01:48:48;16.10;99.90
46085;DHT22;31823;47.032;8.310;2023-07-02T01:51:14;16.10;99.90
46085;DHT22;31823;47.032;8.310;2023-07-02T01:53:39;16.30;99.90
46085;DHT22;31823;47.032;8.310;2023-07-02T01:56:05;16.20;99.90
46085;DHT22;31823;47.032;8.310;2023-07-02T01:58:30;16.20;99.90
46085;DHT22;31823;47.032;8.310;2023-07-02T02:00:56;16.10;99.90
46085;DHT22;31823;47.032;8.310;2023-07-02T02:03:22;16.10;99.90
46085;DHT22;31823;47.032;8.310;2023-07-02T02:05:48;16.20;99.90
46085;DHT22;31823;47.032;8.310;2023-07-02T02:08:13;16.30;99.90
46085;DHT22;31823;47.032;8.310;2023-07-02T02:10:39;16.30;99.90
46085;DHT22;31823;47.032;8.310;2023-07-02T02:13:04;16.40;99.90
46085;DHT22;31823;47.032;8.310;2023-07-02T02:15:30;16.60;99.90
46085;DHT22;31823;47.032;8.310;2023-07-02T02:17:56;16.70;99.90
46085;DHT22;31823;47.032;8.310;2023-07-02T02:20:21;16.80;99.90
46085;DHT22;31823;47.032;8.310;2023-07-02T02:22:47;16.90;99.90
46085;DHT22;31823;47.032;8.310;2023-07-02T02:25:12;17.00;99.90
46085;DHT22;31823;47.032;8.310;2023-07-02T02:27:38;17.10;99.90
46085;DHT22;31823;47.032;8.310;2023-07-02T02:30:04;17.10;99.90
46085;DHT22;31823;47.032;8.310;2023-07-02T02:32:30;17.20;99.90
46085;DHT22;31823;47.032;8.310;2023-07-02T02:34:56;17.20;99.90
46085;DHT22;31823;47.032;8.310;2023-07-02T02:37:21;17.20;99.90
46085;DHT22;31823;47.032;8.310;2023-07-02T02:39:48;17.20;99.90
46085;DHT22;31823;47.032;8.310;2023-07-02T02:42:14;17.20;99.90
46085;DHT22;31823;47.032;8.310;2023-07-02T02:44:39;17.20;99.90
46085;DHT22;31823;47.032;8.310;2023-07-02T02:47:05;17.20;99.90
46085;DHT22;31823;47.032;8.310;2023-07-02T02:49:31;17.20;99.90
46085;DHT22;31823;47.032;8.310;2023-07-02T02:51:56;17.20;99.90
46085;DHT22;31823;47.032;8.310;2023-07-02T02:54:22;17.20;99.90
46085;DHT22;31823;47.032;8.310;2023-07-02T02:56:47;17.20;99.90
46085;DHT22;31823;47.032;8.310;2023-07-02T02:59:13;17.20;99.90
46085;DHT22;31823;47.032;8.310;2023-07-02T03:01:39;17.10;99.90
46085;DHT22;31823;47.032;8.310;2023-07-02T03:04:04;17.10;99.90
46085;DHT22;31823;47.032;8.310;2023-07-02T03:06:33;17.10;99.90
46085;DHT22;31823;47.032;8.310;2023-07-02T03:08:59;17.10;99.90
46085;DHT22;31823;47.032;8.310;2023-07-02T03:11:25;17.10;99.90
46085;DHT22;31823;47.032;8.310;2023-07-02T03:13:50;17.10;99.90
46085;DHT22;31823;47.032;8.310;2023-07-02T03:16:16;17.10;99.90
46085;DHT22;31823;47.032;8.310;2023-07-02T03:18:41;17.20;99.90
46085;DHT22;31823;47.032;8.310;2023-07-02T03:21:07;17.40;99.90
46085;DHT22;31823;47.032;8.310;2023-07-02T03:23:32;17.70;99.90
46085;DHT22;31823;47.032;8.310;2023-07-02T03:25:58;17.80;99.90
46085;DHT22;31823;47.032;8.310;2023-07-02T03:28:23;17.90;99.90
46085;DHT22;31823;47.032;8.310;2023-07-02T03:30:49;18.00;99.90
46085;DHT22;31823;47.032;8.310;2023-07-02T03:33:14;17.90;99.90
46085;DHT22;31823;47.032;8.310;2023-07-02T03:35:40;17.90;99.90
46085;DHT22;31823;47.032;8.310;2023-07-02T03:38:06;17.80;99.90
46085;DHT22;31823;47.032;8.310;2023-07-02T03:40:31;17.30;99.90
46085;DHT22;31823;47.032;8.310;2023-07-02T03:42:57;16.70;99.90
46085;DHT22;31823;47.032;8.310;2023-07-02T03:45:22;16.50;99.90
46085;DHT22;31823;47.032;8.310;2023-07-02T03:47:48;16.30;99.90
46085;DHT22;31823;47.032;8.310;2023-07-02T03:50:13;16.20;99.90
46085;DHT22;31823;47.032;8.310;2023-07-02T03:52:39;16.10;99.90
46085;DHT22;31823;47.032;8.310;2023-07-02T03:55:05;16.20;99.90
46085;DHT22;31823;47.032;8.310;2023-07-02T03:57:31;16.10;99.90
46085;DHT22;31823;47.032;8.310;2023-07-02T03:59:56;16.10;99.90
46085;DHT22;31823;47.032;8.310;2023-07-02T04:02:22;16.00;99.90
46085;DHT22;31823;47.032;8.310;2023-07-02T04:04:47;16.00;99.90
46085;DHT22;31823;47.032;8.310;2023-07-02T04:07:13;16.10;99.90
46085;DHT22;31823;47.032;8.310;2023-07-02T04:09:39;16.40;99.90
46085;DHT22;31823;47.032;8.310;2023-07-02T04:12:04;16.50;99.90
46085;DHT22;31823;47.032;8.310;2023-07-02T04:14:30;16.30;99.90
46085;DHT22;31823;47.032;8.310;2023-07-02T04:16:56;16.20;99.90
46085;DHT22;31823;47.032;8.310;2023-07-02T04:19:21;16.20;99.90
46085;DHT22;31823;47.032;8.310;2023-07-02T04:21:47;16.20;99.90
46085;DHT22;31823;47.032;8.310;2023-07-02T04:24:12;16.30;99.90
46085;DHT22;31823;47.032;8.310;2023-07-02T04:26:38;16.40;99.90
46085;DHT22;31823;47.032;8.310;2023-07-02T04:29:09;16.40;99.90
46085;DHT22;31823;47.032;8.310;2023-07-02T04:31:34;16.50;99.90
46085;DHT22;31823;47.032;8.310;2023-07-02T04:34:03;16.40;99.90
46085;DHT22;31823;47.032;8.310;2023-07-02T04:36:48;16.30;99.90
46085;DHT22;31823;47.032;8.310;2023-07-02T04:39:14;16.30;99.90
46085;DHT22;31823;47.032;8.310;2023-07-02T04:41:39;16.30;99.90
46085;DHT22;31823;47.032;8.310;2023-07-02T04:44:05;16.40;99.90
46085;DHT22;31823;47.032;8.310;2023-07-02T04:46:31;16.50;99.90
46085;DHT22;31823;47.032;8.310;2023-07-02T04:48:56;16.60;99.90
46085;DHT22;31823;47.032;8.310;2023-07-02T04:51:22;16.50;99.90
46085;DHT22;31823;47.032;8.310;2023-07-02T04:53:47;16.50;99.90
46085;DHT22;31823;47.032;8.310;2023-07-02T04:56:13;16.50;99.90
46085;DHT22;31823;47.032;8.310;2023-07-02T04:58:38;16.60;99.90
46085;DHT22;31823;47.032;8.310;2023-07-02T05:01:04;16.60;99.90
46085;DHT22;31823;47.032;8.310;2023-07-02T05:03:30;16.60;99.90
46085;DHT22;31823;47.032;8.310;2023-07-02T05:05:56;16.60;99.90
46085;DHT22;31823;47.032;8.310;2023-07-02T05:08:21;16.60;99.90
46085;DHT22;31823;47.032;8.310;2023-07-02T05:10:47;16.50;99.90
46085;DHT22;31823;47.032;8.310;2023-07-02T05:13:12;16.50;99.90
46085;DHT22;31823;47.032;8.310;2023-07-02T05:15:38;16.50;99.90
46085;DHT22;31823;47.032;8.310;2023-07-02T05:18:03;16.50;99.90
46085;DHT22;31823;47.032;8.310;2023-07-02T05:20:29;16.60;99.90
46085;DHT22;31823;47.032;8.310;2023-07-02T05:22:55;16.60;99.90
46085;DHT22;31823;47.032;8.310;2023-07-02T05:25:20;16.60;99.90
46085;DHT22;31823;47.032;8.310;2023-07-02T05:27:46;16.60;99.90
46085;DHT22;31823;47.032;8.310;2023-07-02T05:30:12;16.40;99.90
46085;DHT22;31823;47.032;8.310;2023-07-02T05:32:37;16.40;99.90
46085;DHT22;31823;47.032;8.310;2023-07-02T05:35:05;16.30;99.90
46085;DHT22;31823;47.032;8.310;2023-07-02T05:37:30;16.30;99.90
46085;DHT22;31823;47.032;8.310;2023-07-02T05:39:56;16.30;99.90
46085;DHT22;31823;47.032;8.310;2023-07-02T05:42:21;16.20;99.90
46085;DHT22;31823;47.032;8.310;2023-07-02T05:44:47;16.20;99.90
46085;DHT22;31823;47.032;8.310;2023-07-02T05:47:12;16.20;99.90
46085;DHT22;31823;47.032;8.310;2023-07-02T05:49:38;16.20;99.90
46085;DHT22;31823;47.032;8.310;2023-07-02T05:52:04;16.30;99.90
46085;DHT22;31823;47.032;8.310;2023-07-02T05:54:29;16.40;99.90
46085;DHT22;31823;47.032;8.310;2023-07-02T05:56:55;16.40;99.90
46085;DHT22;31823;47.032;8.310;2023-07-02T05:59:20;16.40;99.90
46085;DHT22;31823;47.032;8.310;2023-07-02T06:01:46;16.40;99.90
46085;DHT22;31823;47.032;8.310;2023-07-02T06:04:12;16.30;99.90
46085;DHT22;31823;47.032;8.310;2023-07-02T06:06:37;16.30;99.90
46085;DHT22;31823;47.032;8.310;2023-07-02T06:09:03;16.40;99.90
46085;DHT22;31823;47.032;8.310;2023-07-02T06:11:29;16.50;99.90
46085;DHT22;31823;47.032;8.310;2023-07-02T06:13:54;16.60;99.90
46085;DHT22;31823;47.032;8.310;2023-07-02T06:16:20;16.60;99.90
46085;DHT22;31823;47.032;8.310;2023-07-02T06:18:46;16.60;99.90
46085;DHT22;31823;47.032;8.310;2023-07-02T06:21:11;16.40;99.90
46085;DHT22;31823;47.032;8.310;2023-07-02T06:23:43;16.50;99.90
46085;DHT22;31823;47.032;8.310;2023-07-02T06:26:09;16.50;99.90
46085;DHT22;31823;47.032;8.310;2023-07-02T06:28:35;16.50;99.90
46085;DHT22;31823;47.032;8.310;2023-07-02T06:31:01;16.50;99.90
46085;DHT22;31823;47.032;8.310;2023-07-02T06:33:26;16.60;99.90
46085;DHT22;31823;47.032;8.310;2023-07-02T06:35:52;16.70;99.90
46085;DHT22;31823;47.032;8.310;2023-07-02T06:38:18;16.90;99.90
46085;DHT22;31823;47.032;8.310;2023-07-02T06:40:43;17.00;99.90
46085;DHT22;31823;47.032;8.310;2023-07-02T06:43:09;17.10;99.90
46085;DHT22;31823;47.032;8.310;2023-07-02T06:45:35;17.10;99.90
46085;DHT22;31823;47.032;8.310;2023-07-02T06:48:00;17.10;99.90
46085;DHT22;31823;47.032;8.310;2023-07-02T06:50:26;17.20;99.90
46085;DHT22;31823;47.032;8.310;2023-07-02T06:52:52;17.30;99.90
46085;DHT22;31823;47.032;8.310;2023-07-02T06:55:17;17.30;99.90
46085;DHT22;31823;47.032;8.310;2023-07-02T06:57:43;17.30;99.90
46085;DHT22;31823;47.032;8.310;2023-07-02T07:00:14;17.20;99.90
46085;DHT22;31823;47.032;8.310;2023-07-02T07:02:39;17.30;99.90
46085;DHT22;31823;47.032;8.310;2023-07-02T07:05:05;17.40;99.90
46085;DHT22;31823;47.032;8.310;2023-07-02T07:07:32;17.50;99.90
46085;DHT22;31823;47.032;8.310;2023-07-02T07:09:57;17.70;99.90
46085;DHT22;31823;47.032;8.310;2023-07-02T07:12:23;17.60;99.90
46085;DHT22;31823;47.032;8.310;2023-07-02T07:14:48;17.70;99.90
46085;DHT22;31823;47.032;8.310;2023-07-02T07:17:14;17.80;99.90
46085;DHT22;31823;47.032;8.310;2023-07-02T07:19:40;17.80;99.90
46085;DHT22;31823;47.032;8.310;2023-07-02T07:22:05;17.80;99.90
46085;DHT22;31823;47.032;8.310;2023-07-02T07:24:31;18.00;99.90
46085;DHT22;31823;47.032;8.310;2023-07-02T07:26:57;18.00;99.90
46085;DHT22;31823;47.032;8.310;2023-07-02T07:29:22;18.20;99.90
46085;DHT22;31823;47.032;8.310;2023-07-02T07:31:48;18.10;99.90
46085;DHT22;31823;47.032;8.310;2023-07-02T07:34:13;17.90;99.90
46085;DHT22;31823;47.032;8.310;2023-07-02T07:36:39;18.00;99.90
46085;DHT22;31823;47.032;8.310;2023-07-02T07:39:04;17.90;99.90
46085;DHT22;31823;47.032;8.310;2023-07-02T07:41:30;17.90;99.90
46085;DHT22;31823;47.032;8.310;2023-07-02T07:43:55;17.90;99.90
46085;DHT22;31823;47.032;8.310;2023-07-02T07:46:21;18.00;99.90
46085;DHT22;31823;47.032;8.310;2023-07-02T07:48:46;18.00;99.90
46085;DHT22;31823;47.032;8.310;2023-07-02T07:51:12;18.10;99.90
46085;DHT22;31823;47.032;8.310;2023-07-02T07:53:38;18.10;99.90
46085;DHT22;31823;47.032;8.310;2023-07-02T07:56:05;18.00;99.90
46085;DHT22;31823;47.032;8.310;2023-07-02T07:58:30;18.30;99.90
46085;DHT22;31823;47.032;8.310;2023-07-02T08:00:57;18.50;99.90
46085;DHT22;31823;47.032;8.310;2023-07-02T08:03:23;18.40;99.90
46085;DHT22;31823;47.032;8.310;2023-07-02T08:05:48;18.50;99.90
46085;DHT22;31823;47.032;8.310;2023-07-02T08:08:14;18.50;99.90
46085;DHT22;31823;47.032;8.310;2023-07-02T08:10:39;18.70;99.90
46085;DHT22;31823;47.032;8.310;2023-07-02T08:13:05;19.00;99.90
46085;DHT22;31823;47.032;8.310;2023-07-02T08:15:31;19.10;99.90
46085;DHT22;31823;47.032;8.310;2023-07-02T08:17:56;19.00;99.90
46085;DHT22;31823;47.032;8.310;2023-07-02T08:20:24;18.80;99.90
46085;DHT22;31823;47.032;8.310;2023-07-02T08:22:50;18.80;99.90
46085;DHT22;31823;47.032;8.310;2023-07-02T08:25:17;19.20;99.90
46085;DHT22;31823;47.032;8.310;2023-07-02T08:27:43;19.90;99.90
46085;DHT22;31823;47.032;8.310;2023-07-02T08:30:09;20.00;99.90
46085;DHT22;31823;47.032;8.310;2023-07-02T08:32:35;19.80;99.90
46085;DHT22;31823;47.032;8.310;2023-07-02T08:35:01;20.10;99.90
46085;DHT22;31823;47.032;8.310;2023-07-02T08:37:27;20.20;99.90
46085;DHT22;31823;47.032;8.310;2023-07-02T08:39:52;20.50;99.90
46085;DHT22;31823;47.032;8.310;2023-07-02T08:42:18;20.60;99.90
46085;DHT22;31823;47.032;8.310;2023-07-02T08:44:47;20.50;99.90
46085;DHT22;31823;47.032;8.310;2023-07-02T08:47:13;20.30;99.90
46085;DHT22;31823;47.032;8.310;2023-07-02T08:49:39;20.10;99.90
46085;DHT22;31823;47.032;8.310;2023-07-02T08:52:05;20.60;99.90
46085;DHT22;31823;47.032;8.310;2023-07-02T08:54:31;20.90;99.90
46085;DHT22;31823;47.032;8.310;2023-07-02T08:56:57;20.70;99.90
46085;DHT22;31823;47.032;8.310;2023-07-02T08:59:23;20.50;99.90
46085;DHT22;31823;47.032;8.310;2023-07-02T09:01:50;20.60;99.90
46085;DHT22;31823;47.032;8.310;2023-07-02T09:06:42;20.40;99.90
46085;DHT22;31823;47.032;8.310;2023-07-02T09:09:07;20.30;99.90
46085;DHT22;31823;47.032;8.310;2023-07-02T09:11:34;20.50;99.90
46085;DHT22;31823;47.032;8.310;2023-07-02T09:13:59;20.50;99.90
46085;DHT22;31823;47.032;8.310;2023-07-02T09:19:08;20.30;99.90
46085;DHT22;31823;47.032;8.310;2023-07-02T09:21:44;20.10;99.90
46085;DHT22;31823;47.032;8.310;2023-07-02T09:24:19;20.10;99.90
46085;DHT22;31823;47.032;8.310;2023-07-02T09:26:52;20.50;99.90
46085;DHT22;31823;47.032;8.310;2023-07-02T09:29:26;20.30;99.90
46085;DHT22;31823;47.032;8.310;2023-07-02T09:31:54;20.60;99.90
46085;DHT22;31823;47.032;8.310;2023-07-02T09:34:27;20.60;99.90
46085;DHT22;31823;47.032;8.310;2023-07-02T09:36:53;20.20;99.90
46085;DHT22;31823;47.032;8.310;2023-07-02T09:39:20;20.00;99.90
46085;DHT22;31823;47.032;8.310;2023-07-02T09:41:49;20.10;99.90
46085;DHT22;31823;47.032;8.310;2023-07-02T09:44:15;20.10;99.90
46085;DHT22;31823;47.032;8.310;2023-07-02T09:46:48;20.00;99.90
46085;DHT22;31823;47.032;8.310;2023-07-02T09:49:17;19.90;99.90
46085;DHT22;31823;47.032;8.310;2023-07-02T09:51:45;19.90;99.90
46085;DHT22;31823;47.032;8.310;2023-07-02T09:54:11;20.00;99.90
46085;DHT22;31823;47.032;8.310;2023-07-02T09:56:37;19.80;99.90
46085;DHT22;31823;47.032;8.310;2023-07-02T09:59:03;19.80;99.90
46085;DHT22;31823;47.032;8.310;2023-07-02T10:01:29;19.70;99.90
46085;DHT22;31823;47.032;8.310;2023-07-02T10:03:54;19.70;99.90
46085;DHT22;31823;47.032;8.310;2023-07-02T10:06:20;19.80;99.90
46085;DHT22;31823;47.032;8.310;2023-07-02T10:08:55;19.70;99.90
46085;DHT22;31823;47.032;8.310;2023-07-02T10:11:21;19.50;99.90
46085;DHT22;31823;47.032;8.310;2023-07-02T10:13:58;19.30;99.90
46085;DHT22;31823;47.032;8.310;2023-07-02T10:16:24;19.20;99.90
46085;DHT22;31823;47.032;8.310;2023-07-02T10:18:52;19.10;99.90
46085;DHT22;31823;47.032;8.310;2023-07-02T10:21:18;19.20;99.90
46085;DHT22;31823;47.032;8.310;2023-07-02T10:23:44;19.40;99.90
46085;DHT22;31823;47.032;8.310;2023-07-02T10:26:19;19.60;99.90
46085;DHT22;31823;47.032;8.310;2023-07-02T10:28:58;19.60;99.90
46085;DHT22;31823;47.032;8.310;2023-07-02T10:31:23;19.40;99.90
46085;DHT22;31823;47.032;8.310;2023-07-02T10:33:49;19.40;99.90
46085;DHT22;31823;47.032;8.310;2023-07-02T10:36:22;19.60;99.90
46085;DHT22;31823;47.032;8.310;2023-07-02T10:38:49;19.50;99.90
46085;DHT22;31823;47.032;8.310;2023-07-02T10:41:25;19.50;99.90
46085;DHT22;31823;47.032;8.310;2023-07-02T10:43:51;19.60;99.90
46085;DHT22;31823;47.032;8.310;2023-07-02T10:46:21;19.60;99.90
46085;DHT22;31823;47.032;8.310;2023-07-02T10:48:57;19.70;99.90
46085;DHT22;31823;47.032;8.310;2023-07-02T10:51:23;19.90;99.90
46085;DHT22;31823;47.032;8.310;2023-07-02T10:53:58;20.00;99.90
46085;DHT22;31823;47.032;8.310;2023-07-02T10:56:24;20.00;99.90
46085;DHT22;31823;47.032;8.310;2023-07-02T10:58:51;20.10;99.90
46085;DHT22;31823;47.032;8.310;2023-07-02T11:01:28;20.10;99.90
46085;DHT22;31823;47.032;8.310;2023-07-02T11:03:58;20.10;99.90
46085;DHT22;31823;47.032;8.310;2023-07-02T11:06:25;20.30;99.90
46085;DHT22;31823;47.032;8.310;2023-07-02T11:08:51;20.60;99.90
46085;DHT22;31823;47.032;8.310;2023-07-02T11:11:17;21.00;99.90
46085;DHT22;31823;47.032;8.310;2023-07-02T11:13:46;21.50;99.90
46085;DHT22;31823;47.032;8.310;2023-07-02T11:16:23;21.10;99.90
46085;DHT22;31823;47.032;8.310;2023-07-02T11:18:54;21.00;99.90
46085;DHT22;31823;47.032;8.310;2023-07-02T11:21:31;21.00;99.90
46085;DHT22;31823;47.032;8.310;2023-07-02T11:24:07;21.00;99.90
46085;DHT22;31823;47.032;8.310;2023-07-02T11:26:40;21.20;99.90
46085;DHT22;31823;47.032;8.310;2023-07-02T11:29:17;21.20;99.90
46085;DHT22;31823;47.032;8.310;2023-07-02T11:31:43;21.80;99.90
46085;DHT22;31823;47.032;8.310;2023-07-02T11:34:20;22.00;99.90
46085;DHT22;31823;47.032;8.310;2023-07-02T11:36:46;21.80;99.90
46085;DHT22;31823;47.032;8.310;2023-07-02T11:39:12;21.80;99.90
46085;DHT22;31823;47.032;8.310;2023-07-02T11:41:40;21.60;99.90
46085;DHT22;31823;47.032;8.310;2023-07-02T11:44:06;22.00;99.90
46085;DHT22;31823;47.032;8.310;2023-07-02T11:46:32;21.40;99.90
46085;DHT22;31823;47.032;8.310;2023-07-02T11:48:59;21.10;99.90
46085;DHT22;31823;47.032;8.310;2023-07-02T11:51:25;20.70;99.90
46085;DHT22;31823;47.032;8.310;2023-07-02T11:53:51;20.80;99.90
46085;DHT22;31823;47.032;8.310;2023-07-02T11:56:16;20.40;99.90
46085;DHT22;31823;47.032;8.310;2023-07-02T11:58:42;20.30;99.90
46085;DHT22;31823;47.032;8.310;2023-07-02T12:01:11;20.10;99.90
46085;DHT22;31823;47.032;8.310;2023-07-02T12:03:36;20.30;99.90
46085;DHT22;31823;47.032;8.310;2023-07-02T12:06:02;20.50;99.90
46085;DHT22;31823;47.032;8.310;2023-07-02T12:08:27;20.50;99.90
46085;DHT22;31823;47.032;8.310;2023-07-02T12:10:53;20.60;99.90
46085;DHT22;31823;47.032;8.310;2023-07-02T12:13:19;20.50;99.90
46085;DHT22;31823;47.032;8.310;2023-07-02T12:15:47;20.30;99.90
46085;DHT22;31823;47.032;8.310;2023-07-02T12:18:12;20.30;99.90
46085;DHT22;31823;47.032;8.310;2023-07-02T12:20:39;20.10;99.90
46085;DHT22;31823;47.032;8.310;2023-07-02T12:23:05;19.90;99.90
46085;DHT22;31823;47.032;8.310;2023-07-02T12:25:31;19.90;99.90
46085;DHT22;31823;47.032;8.310;2023-07-02T12:27:57;20.00;99.90
46085;DHT22;31823;47.032;8.310;2023-07-02T12:30:22;19.90;99.90
46085;DHT22;31823;47.032;8.310;2023-07-02T12:32:48;19.90;99.90
46085;DHT22;31823;47.032;8.310;2023-07-02T12:35:14;19.90;99.90
46085;DHT22;31823;47.032;8.310;2023-07-02T12:37:44;20.10;99.90
46085;DHT22;31823;47.032;8.310;2023-07-02T12:40:10;19.80;99.90
46085;DHT22;31823;47.032;8.310;2023-07-02T12:42:36;20.10;99.90
46085;DHT22;31823;47.032;8.310;2023-07-02T12:45:01;20.10;99.90
46085;DHT22;31823;47.032;8.310;2023-07-02T12:47:27;20.30;99.90
46085;DHT22;31823;47.032;8.310;2023-07-02T12:49:52;20.30;99.90
46085;DHT22;31823;47.032;8.310;2023-07-02T12:52:18;20.30;99.90
46085;DHT22;31823;47.032;8.310;2023-07-02T12:54:43;20.50;99.90
46085;DHT22;31823;47.032;8.310;2023-07-02T12:57:09;20.70;99.90
46085;DHT22;31823;47.032;8.310;2023-07-02T12:59:35;20.90;99.90
46085;DHT22;31823;47.032;8.310;2023-07-02T13:02:00;21.60;99.90
46085;DHT22;31823;47.032;8.310;2023-07-02T13:04:26;22.60;99.90
46085;DHT22;31823;47.032;8.310;2023-07-02T13:06:52;23.00;99.90
46085;DHT22;31823;47.032;8.310;2023-07-02T13:09:17;23.50;99.90
46085;DHT22;31823;47.032;8.310;2023-07-02T13:11:43;23.80;99.90
46085;DHT22;31823;47.032;8.310;2023-07-02T13:14:08;23.40;99.90
46085;DHT22;31823;47.032;8.310;2023-07-02T13:16:34;23.90;99.90
46085;DHT22;31823;47.032;8.310;2023-07-02T13:18:59;23.60;99.90
46085;DHT22;31823;47.032;8.310;2023-07-02T13:21:27;23.30;99.90
46085;DHT22;31823;47.032;8.310;2023-07-02T13:23:53;23.40;99.90
46085;DHT22;31823;47.032;8.310;2023-07-02T13:26:18;22.90;99.90
46085;DHT22;31823;47.032;8.310;2023-07-02T13:28:45;22.40;99.90
46085;DHT22;31823;47.032;8.310;2023-07-02T13:31:13;22.30;99.90
46085;DHT22;31823;47.032;8.310;2023-07-02T13:33:39;22.00;99.90
46085;DHT22;31823;47.032;8.310;2023-07-02T13:36:05;21.80;99.90
46085;DHT22;31823;47.032;8.310;2023-07-02T13:38:31;21.80;99.90
46085;DHT22;31823;47.032;8.310;2023-07-02T13:40:57;21.60;99.90
46085;DHT22;31823;47.032;8.310;2023-07-02T13:43:22;21.60;99.90
46085;DHT22;31823;47.032;8.310;2023-07-02T13:45:48;21.50;99.90
46085;DHT22;31823;47.032;8.310;2023-07-02T13:48:13;21.30;99.90
46085;DHT22;31823;47.032;8.310;2023-07-02T13:50:39;21.20;99.90
46085;DHT22;31823;47.032;8.310;2023-07-02T13:53:05;21.20;99.90
46085;DHT22;31823;47.032;8.310;2023-07-02T13:55:30;21.40;99.90
46085;DHT22;31823;47.032;8.310;2023-07-02T13:57:57;21.60;99.90
46085;DHT22;31823;47.032;8.310;2023-07-02T14:00:23;22.10;99.90
46085;DHT22;31823;47.032;8.310;2023-07-02T14:02:50;22.00;99.90
46085;DHT22;31823;47.032;8.310;2023-07-02T14:05:16;22.20;99.90
46085;DHT22;31823;47.032;8.310;2023-07-02T14:07:41;22.00;99.90
46085;DHT22;31823;47.032;8.310;2023-07-02T14:10:07;21.40;99.90
46085;DHT22;31823;47.032;8.310;2023-07-02T14:12:33;21.10;99.90
46085;DHT22;31823;47.032;8.310;2023-07-02T14:14:59;20.80;99.90
46085;DHT22;31823;47.032;8.310;2023-07-02T14:17:24;20.80;99.90
46085;DHT22;31823;47.032;8.310;2023-07-02T14:19:50;20.80;99.90
46085;DHT22;31823;47.032;8.310;2023-07-02T14:22:15;20.80;99.90
46085;DHT22;31823;47.032;8.310;2023-07-02T14:24:41;20.70;99.90
46085;DHT22;31823;47.032;8.310;2023-07-02T14:27:06;20.60;99.90
46085;DHT22;31823;47.032;8.310;2023-07-02T14:29:32;20.60;99.90
46085;DHT22;31823;47.032;8.310;2023-07-02T14:31:58;20.70;99.90
46085;DHT22;31823;47.032;8.310;2023-07-02T14:34:23;20.60;99.90
46085;DHT22;31823;47.032;8.310;2023-07-02T14:36:49;20.20;99.90
46085;DHT22;31823;47.032;8.310;2023-07-02T14:39:14;20.20;99.90
46085;DHT22;31823;47.032;8.310;2023-07-02T14:41:40;20.10;99.90
46085;DHT22;31823;47.032;8.310;2023-07-02T14:44:06;20.00;99.90
46085;DHT22;31823;47.032;8.310;2023-07-02T14:46:31;19.70;99.90
46085;DHT22;31823;47.032;8.310;2023-07-02T14:48:57;19.70;99.90
46085;DHT22;31823;47.032;8.310;2023-07-02T14:51:23;19.80;99.90
46085;DHT22;31823;47.032;8.310;2023-07-02T14:53:50;20.10;99.90
46085;DHT22;31823;47.032;8.310;2023-07-02T14:56:15;20.20;99.90
46085;DHT22;31823;47.032;8.310;2023-07-02T14:58:41;20.40;99.90
46085;DHT22;31823;47.032;8.310;2023-07-02T15:01:06;20.50;99.90
46085;DHT22;31823;47.032;8.310;2023-07-02T15:03:32;20.30;99.90
46085;DHT22;31823;47.032;8.310;2023-07-02T15:08:32;20.40;99.90
46085;DHT22;31823;47.032;8.310;2023-07-02T15:10:59;20.60;99.90
46085;DHT22;31823;47.032;8.310;2023-07-02T15:13:25;20.60;99.90
46085;DHT22;31823;47.032;8.310;2023-07-02T15:15:51;20.40;99.90
46085;DHT22;31823;47.032;8.310;2023-07-02T15:18:17;20.20;99.90
46085;DHT22;31823;47.032;8.310;2023-07-02T15:20:46;20.00;99.90
46085;DHT22;31823;47.032;8.310;2023-07-02T15:23:13;19.90;99.90
46085;DHT22;31823;47.032;8.310;2023-07-02T15:25:38;19.70;99.90
46085;DHT22;31823;47.032;8.310;2023-07-02T15:28:04;19.70;99.90
46085;DHT22;31823;47.032;8.310;2023-07-02T15:30:30;19.60;99.90
46085;DHT22;31823;47.032;8.310;2023-07-02T15:32:56;19.60;99.90
46085;DHT22;31823;47.032;8.310;2023-07-02T15:35:22;19.50;99.90
46085;DHT22;31823;47.032;8.310;2023-07-02T15:37:47;19.30;99.90